createdAt,value
2023-04-04T00:02:07.300Z,86.35
2023-04-04T00:04:33.690Z,86.77
2023-04-04T00:07:00.148Z,86.97
2023-04-04T00:09:26.936Z,87.17
2023-04-04T00:11:53.544Z,86.72
2023-04-04T00:14:20.087Z,87.21
2023-04-04T00:16:46.466Z,87.19
2023-04-04T00:19:17.853Z,87.61
2023-04-04T00:21:47.586Z,88.10
2023-04-04T00:24:13.955Z,88.25
2023-04-04T00:26:40.461Z,88.70
2023-04-04T00:29:07.224Z,89.13
2023-04-04T00:31:34.116Z,89.50
2023-04-04T00:34:00.984Z,89.91
2023-04-04T00:36:27.746Z,89.73
2023-04-04T00:38:55.102Z,90.00
2023-04-04T00:41:22.815Z,90.07
2023-04-04T00:43:49.380Z,89.78
2023-04-04T00:46:17.611Z,89.71
2023-04-04T00:48:44.316Z,89.71
2023-04-04T00:51:10.840Z,89.92
2023-04-04T00:53:38.209Z,89.94
2023-04-04T00:56:06.826Z,90.05
2023-04-04T00:58:33.234Z,90.14
2023-04-04T01:01:01.339Z,90.28
2023-04-04T01:03:28.187Z,90.74
2023-04-04T01:05:56.741Z,90.80
2023-04-04T01:08:26.462Z,90.78
2023-04-04T01:10:53.510Z,90.69
2023-04-04T01:13:21.542Z,90.12
2023-04-04T01:15:49.522Z,89.54
2023-04-04T01:18:21.799Z,90.10
2023-04-04T01:21:00.520Z,90.12
2023-04-04T01:23:36.158Z,89.85
2023-04-04T01:26:04.667Z,90.20
2023-04-04T01:28:32.650Z,90.66
2023-04-04T01:31:02.901Z,90.71
2023-04-04T01:33:34.480Z,90.77
2023-04-04T01:36:19.339Z,90.99
2023-04-04T01:38:54.160Z,90.66
2023-04-04T01:41:22.329Z,90.54
2023-04-04T01:43:56.113Z,91.07
2023-04-04T01:46:23.932Z,91.11
2023-04-04T01:48:50.814Z,91.18
2023-04-04T01:51:23.703Z,91.05
2023-04-04T01:53:51.567Z,91.47
2023-04-04T01:56:18.656Z,91.38
2023-04-04T01:58:45.147Z,91.27
2023-04-04T02:01:11.676Z,91.52
2023-04-04T02:03:38.648Z,91.77
2023-04-04T02:06:05.532Z,91.79
2023-04-04T02:08:31.999Z,91.60
2023-04-04T02:10:58.702Z,92.23
2023-04-04T02:13:25.791Z,91.89
2023-04-04T02:15:53.403Z,92.54
2023-04-04T02:18:20.110Z,92.54
2023-04-04T02:20:46.532Z,92.64
2023-04-04T02:23:12.932Z,92.40
2023-04-04T02:25:39.374Z,93.30
2023-04-04T02:28:05.896Z,93.48
2023-04-04T02:30:32.266Z,93.80
2023-04-04T02:33:00.183Z,93.81
2023-04-04T02:35:27.335Z,93.65
2023-04-04T02:37:53.716Z,93.54
2023-04-04T02:40:27.631Z,93.58
2023-04-04T02:42:54.057Z,93.99
2023-04-04T02:45:21.034Z,94.23
2023-04-04T02:47:59.241Z,94.09
2023-04-04T02:50:35.635Z,94.37
2023-04-04T02:53:03.133Z,94.45
2023-04-04T02:55:32.573Z,94.69
2023-04-04T02:57:59.088Z,94.56
2023-04-04T03:00:25.931Z,95.06
2023-04-04T03:02:56.446Z,95.13
2023-04-04T03:05:30.472Z,95.25
2023-04-04T03:07:57.985Z,94.83
2023-04-04T03:10:32.098Z,95.06
2023-04-04T03:12:59.029Z,94.74
2023-04-04T03:15:27.623Z,94.78
2023-04-04T03:17:54.529Z,95.00
2023-04-04T03:20:25.797Z,95.26
2023-04-04T03:22:52.401Z,95.66
2023-04-04T03:25:18.842Z,95.46
2023-04-04T03:27:45.384Z,95.33
2023-04-04T03:30:18.930Z,96.15
2023-04-04T03:32:45.345Z,96.31
2023-04-04T03:35:11.871Z,95.76
2023-04-04T03:37:40.342Z,96.04
2023-04-04T03:40:07.667Z,96.15
2023-04-04T03:42:34.924Z,96.67
2023-04-04T03:45:07.259Z,97.10
2023-04-04T03:47:34.846Z,97.10
2023-04-04T03:50:02.291Z,97.25
2023-04-04T03:52:30.047Z,97.61
2023-04-04T03:54:56.736Z,97.63
2023-04-04T03:57:23.631Z,97.89
2023-04-04T03:59:50.108Z,97.96
2023-04-04T04:02:17.501Z,98.41
2023-04-04T04:04:45.482Z,98.50
2023-04-04T04:07:11.913Z,99.17
2023-04-04T04:09:38.560Z,98.74
2023-04-04T04:12:06.604Z,99.22
2023-04-04T04:14:33.291Z,99.02
2023-04-04T04:17:02.169Z,99.09
2023-04-04T04:19:28.598Z,99.23
2023-04-04T04:21:56.219Z,99.23
2023-04-04T04:24:22.681Z,98.79
2023-04-04T04:26:49.356Z,99.50
2023-04-04T04:29:16.576Z,99.43
2023-04-04T04:31:43.529Z,99.36
2023-04-04T04:34:10.622Z,99.22
2023-04-04T04:36:38.953Z,99.26
2023-04-04T04:39:22.258Z,99.64
2023-04-04T04:42:06.883Z,99.81
2023-04-04T04:44:35.782Z,100.00
2023-04-04T04:47:03.734Z,100.00
2023-04-04T04:49:30.198Z,100.00
2023-04-04T04:52:00.109Z,100.00
2023-04-04T04:54:27.053Z,100.00
2023-04-04T04:56:55.040Z,100.00
2023-04-04T04:59:22.109Z,100.00
2023-04-04T05:01:49.145Z,100.00
2023-04-04T05:04:17.512Z,100.00
2023-04-04T05:06:57.171Z,100.00
2023-04-04T05:09:24.208Z,100.00
2023-04-04T05:11:50.960Z,100.00
2023-04-04T05:14:21.678Z,100.00
2023-04-04T05:16:54.747Z,100.00
2023-04-04T05:19:25.755Z,100.00
2023-04-04T05:21:55.818Z,100.00
2023-04-04T05:24:36.741Z,100.00
2023-04-04T05:27:03.874Z,100.00
2023-04-04T05:29:37.153Z,100.00
2023-04-04T05:32:04.600Z,100.00
2023-04-04T05:34:32.550Z,100.00
2023-04-04T05:36:59.700Z,100.00
2023-04-04T05:39:26.749Z,100.00
2023-04-04T05:42:00.887Z,100.00
2023-04-04T05:44:30.644Z,100.00
2023-04-04T05:46:57.244Z,100.00
2023-04-04T05:49:24.265Z,100.00
2023-04-04T05:51:57.607Z,100.00
2023-04-04T05:54:25.914Z,100.00
2023-04-04T05:56:53.013Z,100.00
2023-04-04T05:59:34.887Z,100.00
2023-04-04T06:02:03.946Z,100.00
2023-04-04T06:04:31.681Z,100.00
2023-04-04T06:07:00.873Z,100.00
2023-04-04T06:09:27.786Z,100.00
2023-04-04T06:11:54.568Z,100.00
2023-04-04T06:14:21.830Z,100.00
2023-04-04T06:16:48.577Z,100.00
2023-04-04T06:19:16.316Z,100.00
2023-04-04T06:21:42.905Z,100.00
2023-04-04T06:24:11.738Z,100.00
2023-04-04T06:26:39.246Z,100.00
2023-04-04T06:29:06.188Z,100.00
2023-04-04T06:31:36.666Z,100.00
2023-04-04T06:34:10.295Z,100.00
2023-04-04T06:36:50.296Z,99.47
2023-04-04T06:39:16.759Z,99.24
2023-04-04T06:41:44.936Z,99.42
2023-04-04T06:44:13.392Z,99.67
2023-04-04T06:46:40.207Z,99.51
2023-04-04T06:49:06.938Z,98.79
2023-04-04T06:51:34.475Z,97.70
2023-04-04T06:54:01.620Z,97.34
2023-04-04T06:56:28.181Z,96.41
2023-04-04T06:58:54.865Z,95.49
2023-04-04T07:01:21.609Z,95.30
2023-04-04T07:03:49.105Z,94.32
2023-04-04T07:06:15.520Z,94.42
2023-04-04T07:08:41.935Z,94.17
2023-04-04T07:11:08.421Z,91.71
2023-04-04T07:13:35.353Z,91.32
2023-04-04T07:16:02.991Z,90.83
2023-04-04T07:18:29.661Z,86.95
2023-04-04T07:20:56.112Z,86.19
2023-04-04T07:23:22.486Z,84.25
2023-04-04T07:25:49.023Z,78.58
2023-04-04T07:28:15.768Z,80.10
2023-04-04T07:30:42.989Z,81.67
2023-04-04T07:33:09.714Z,80.51
2023-04-04T07:35:36.396Z,76.40
2023-04-04T07:38:04.178Z,77.09
2023-04-04T07:40:31.222Z,75.42
2023-04-04T07:42:57.610Z,69.95
2023-04-04T07:45:24.032Z,68.11
2023-04-04T07:47:50.702Z,65.76
2023-04-04T07:50:17.190Z,62.03
2023-04-04T07:52:51.136Z,61.67
2023-04-04T07:55:18.906Z,62.33
2023-04-04T07:57:45.431Z,58.75
2023-04-04T08:00:12.349Z,60.25
2023-04-04T08:02:44.754Z,59.81
2023-04-04T08:05:11.391Z,59.93
2023-04-04T08:07:37.746Z,59.29
2023-04-04T08:10:04.582Z,59.56
2023-04-04T08:12:30.985Z,56.12
2023-04-04T08:14:57.364Z,56.93
2023-04-04T08:17:24.968Z,55.53
2023-04-04T08:19:51.538Z,55.73
2023-04-04T08:22:18.533Z,54.76
2023-04-04T08:24:44.995Z,54.53
2023-04-04T08:27:12.018Z,79.01
2023-04-04T08:29:38.721Z,55.58
2023-04-04T08:32:05.374Z,55.92
2023-04-04T08:34:32.020Z,54.76
2023-04-04T08:36:59.891Z,55.04
2023-04-04T08:39:27.118Z,55.79
2023-04-04T08:42:05.469Z,54.40
2023-04-04T08:44:34.522Z,53.67
2023-04-04T08:47:05.175Z,55.49
2023-04-04T08:49:41.147Z,55.22
2023-04-04T08:52:11.497Z,55.88
2023-04-04T08:54:40.068Z,50.20
2023-04-04T08:57:08.308Z,50.90
2023-04-04T08:59:35.650Z,51.51
2023-04-04T09:02:17.431Z,51.55
2023-04-04T09:04:54.622Z,52.00
2023-04-04T09:07:30.851Z,51.78
2023-04-04T09:09:58.007Z,51.67
2023-04-04T09:12:25.702Z,50.50
2023-04-04T09:14:54.047Z,49.54
2023-04-04T09:17:20.429Z,48.86
2023-04-04T09:19:47.376Z,47.81
2023-04-04T09:22:16.026Z,51.55
2023-04-04T09:24:43.389Z,51.15
2023-04-04T09:27:11.315Z,52.34
2023-04-04T09:29:39.188Z,49.47
2023-04-04T09:32:16.218Z,49.92
2023-04-04T09:34:45.068Z,50.12
2023-04-04T09:37:14.271Z,51.70
2023-04-04T09:39:41.857Z,49.33
2023-04-04T09:42:09.110Z,50.74
2023-04-04T09:44:36.817Z,52.57
2023-04-04T09:47:30.617Z,50.49
2023-04-04T09:49:58.839Z,49.81
2023-04-04T09:52:25.407Z,49.89
2023-04-04T09:55:02.819Z,48.99
2023-04-04T09:57:32.924Z,47.95
2023-04-04T10:00:01.387Z,49.37
2023-04-04T10:02:31.011Z,47.28
2023-04-04T10:05:05.898Z,49.29
2023-04-04T10:07:33.550Z,47.71
2023-04-04T10:10:05.802Z,46.54
2023-04-04T10:12:33.068Z,47.89
2023-04-04T10:15:00.401Z,47.03
2023-04-04T10:17:41.948Z,45.40
2023-04-04T10:20:09.769Z,44.47
2023-04-04T10:22:37.911Z,42.48
2023-04-04T10:25:05.526Z,43.96
2023-04-04T10:27:32.692Z,45.87
2023-04-04T10:30:00.527Z,44.05
2023-04-04T10:32:48.971Z,41.54
2023-04-04T10:35:17.093Z,40.90
2023-04-04T10:37:50.052Z,40.96
2023-04-04T10:40:19.325Z,42.62
2023-04-04T10:42:47.677Z,42.28
2023-04-04T10:45:21.062Z,42.82
2023-04-04T10:47:48.996Z,43.42
2023-04-04T10:50:15.549Z,42.62
2023-04-04T10:52:46.053Z,39.72
2023-04-04T10:55:13.826Z,39.37
2023-04-04T10:57:47.089Z,39.02
2023-04-04T11:00:17.872Z,38.99
2023-04-04T11:02:53.226Z,38.29
2023-04-04T11:05:24.232Z,39.71
2023-04-04T11:10:30.823Z,38.32
2023-04-04T11:13:12.933Z,36.96
2023-04-04T11:15:58.637Z,36.86
2023-04-04T11:18:40.220Z,36.21
2023-04-04T11:21:08.359Z,35.93
2023-04-04T11:23:50.358Z,34.46
2023-04-04T11:26:18.752Z,34.50
2023-04-04T11:28:46.666Z,34.20
2023-04-04T11:31:19.592Z,32.68
2023-04-04T11:33:57.681Z,32.33
2023-04-04T11:36:44.986Z,31.46
2023-04-04T11:39:31.170Z,30.94
2023-04-04T11:42:10.933Z,30.54
2023-04-04T11:44:49.947Z,29.51
2023-04-04T11:47:22.810Z,28.84
2023-04-04T11:49:49.621Z,29.17
2023-04-04T11:52:17.643Z,28.42
2023-04-04T11:54:46.335Z,27.92
2023-04-04T11:57:14.704Z,28.11
2023-04-04T11:59:46.212Z,27.17
2023-04-04T12:02:15.630Z,27.31
2023-04-04T12:04:45.239Z,27.57
2023-04-04T12:07:13.689Z,26.79
2023-04-04T12:09:40.793Z,26.08
2023-04-04T12:12:08.399Z,25.92
2023-04-04T12:14:34.766Z,25.72
2023-04-04T12:17:03.504Z,25.09
2023-04-04T12:19:29.908Z,25.02
2023-04-04T12:21:57.929Z,24.62
2023-04-04T12:24:24.444Z,24.52
2023-04-04T12:26:52.880Z,24.68
2023-04-04T12:29:21.900Z,24.45
2023-04-04T12:31:49.682Z,24.25
2023-04-04T12:34:22.348Z,24.40
2023-04-04T12:36:51.051Z,23.98
2023-04-04T12:39:17.905Z,23.85
2023-04-04T12:41:51.138Z,23.75
2023-04-04T12:44:28.020Z,23.64
2023-04-04T12:46:58.650Z,23.48
2023-04-04T12:49:29.235Z,23.17
2023-04-04T12:51:56.535Z,22.69
2023-04-04T12:54:27.783Z,22.63
2023-04-04T12:56:58.313Z,23.14
2023-04-04T12:59:29.778Z,22.74
2023-04-04T13:01:56.644Z,22.75
2023-04-04T13:04:24.659Z,22.73
2023-04-04T13:06:51.531Z,22.83
2023-04-04T13:09:23.397Z,22.75
2023-04-04T13:12:04.481Z,22.33
2023-04-04T13:15:07.056Z,22.15
2023-04-04T13:17:44.791Z,22.46
2023-04-04T13:20:11.976Z,22.33
2023-04-04T13:22:40.094Z,22.18
2023-04-04T13:25:08.089Z,22.56
2023-04-04T13:27:36.029Z,22.27
2023-04-04T13:30:04.092Z,21.93
2023-04-04T13:32:31.107Z,22.04
2023-04-04T13:34:57.620Z,22.15
2023-04-04T13:37:25.220Z,22.04
2023-04-04T13:39:51.666Z,22.02
2023-04-04T13:42:18.265Z,22.11
2023-04-04T13:44:44.683Z,21.71
2023-04-04T13:47:11.318Z,21.85
2023-04-04T13:49:37.730Z,21.73
2023-04-04T13:52:04.125Z,21.77
2023-04-04T13:54:30.532Z,21.55
2023-04-04T13:56:57.258Z,22.09
2023-04-04T13:59:23.713Z,22.19
2023-04-04T14:01:50.281Z,22.10
2023-04-04T14:04:23.763Z,22.00
2023-04-04T14:06:51.098Z,21.96
2023-04-04T14:09:17.668Z,21.89
2023-04-04T14:11:44.897Z,21.80
2023-04-04T14:14:11.318Z,21.79
2023-04-04T14:16:37.938Z,21.76
2023-04-04T14:19:04.552Z,21.58
2023-04-04T14:21:31.120Z,22.00
2023-04-04T14:23:57.576Z,21.90
2023-04-04T14:26:24.032Z,21.44
2023-04-04T14:28:50.516Z,21.46
2023-04-04T14:31:17.278Z,21.25
2023-04-04T14:33:45.333Z,20.94
2023-04-04T14:36:12.289Z,21.53
2023-04-04T14:38:38.826Z,21.46
2023-04-04T14:41:05.454Z,22.53
2023-04-04T14:43:31.882Z,23.18
2023-04-04T14:45:58.244Z,22.43
2023-04-04T14:48:24.939Z,22.13
2023-04-04T14:50:52.695Z,22.23
2023-04-04T14:53:19.118Z,21.73
2023-04-04T14:55:45.621Z,22.37
2023-04-04T14:58:12.985Z,21.95
2023-04-04T15:00:39.401Z,21.87
2023-04-04T15:03:08.164Z,22.43
2023-04-04T15:05:34.874Z,22.49
2023-04-04T15:08:01.288Z,22.16
2023-04-04T15:10:27.701Z,22.38
2023-04-04T15:12:55.160Z,22.53
2023-04-04T15:15:37.808Z,22.83
2023-04-04T15:18:04.369Z,23.00
2023-04-04T15:20:31.137Z,23.09
2023-04-04T15:22:57.619Z,23.24
2023-04-04T15:25:24.050Z,23.33
2023-04-04T15:27:50.457Z,23.75
2023-04-04T15:30:16.984Z,24.22
2023-04-04T15:32:43.470Z,24.15
2023-04-04T15:35:17.628Z,24.09
2023-04-04T15:37:44.081Z,24.07
2023-04-04T15:40:12.037Z,24.64
2023-04-04T15:42:39.049Z,24.52
2023-04-04T15:45:06.371Z,25.04
2023-04-04T15:47:32.781Z,24.59
2023-04-04T15:49:59.254Z,25.42
2023-04-04T15:52:26.981Z,25.54
2023-04-04T15:54:53.432Z,26.11
2023-04-04T15:57:20.289Z,25.70
2023-04-04T15:59:47.383Z,26.42
2023-04-04T16:02:14.153Z,26.46
2023-04-04T16:04:40.806Z,26.15
2023-04-04T16:07:07.312Z,26.32
2023-04-04T16:09:33.984Z,26.09
2023-04-04T16:12:02.129Z,26.58
2023-04-04T16:14:28.696Z,26.84
2023-04-04T16:16:55.124Z,28.09
2023-04-04T16:19:22.026Z,27.47
2023-04-04T16:21:49.231Z,27.37
2023-04-04T16:24:15.723Z,27.78
2023-04-04T16:26:47.099Z,28.11
2023-04-04T16:29:14.543Z,27.67
2023-04-04T16:31:40.964Z,27.53
2023-04-04T16:34:07.373Z,28.06
2023-04-04T16:36:33.857Z,28.26
2023-04-04T16:39:00.250Z,28.45
2023-04-04T16:41:27.176Z,29.00
2023-04-04T16:43:54.535Z,28.78
2023-04-04T16:46:21.273Z,28.94
2023-04-04T16:48:47.722Z,28.91
2023-04-04T16:51:14.094Z,29.80
2023-04-04T16:53:40.814Z,29.66
2023-04-04T16:56:07.311Z,29.61
2023-04-04T16:58:33.730Z,29.68
2023-04-04T17:01:00.248Z,29.88
2023-04-04T17:03:26.739Z,30.13
2023-04-04T17:05:56.106Z,29.93
2023-04-04T17:08:22.703Z,30.39
2023-04-04T17:10:49.104Z,31.28
2023-04-04T17:13:15.767Z,31.42
2023-04-04T17:15:42.164Z,31.37
2023-04-04T17:18:08.816Z,31.33
2023-04-04T17:20:35.420Z,31.40
2023-04-04T17:23:01.884Z,31.32
2023-04-04T17:25:29.146Z,31.50
2023-04-04T17:27:55.848Z,31.51
2023-04-04T17:30:22.296Z,31.84
2023-04-04T17:32:49.036Z,31.99
2023-04-04T17:35:15.812Z,32.29
2023-04-04T17:37:42.338Z,32.21
2023-04-04T17:40:09.089Z,32.51
2023-04-04T17:42:35.545Z,33.07
2023-04-04T17:45:01.958Z,33.53
2023-04-04T17:47:29.069Z,33.26
2023-04-04T17:49:57.292Z,33.56
2023-04-04T17:52:23.701Z,33.53
2023-04-04T17:54:52.268Z,34.08
2023-04-04T17:57:19.497Z,34.45
2023-04-04T17:59:47.092Z,34.48
2023-04-04T18:02:14.068Z,35.24
2023-04-04T18:04:40.491Z,34.33
2023-04-04T18:07:08.317Z,34.97
2023-04-04T18:09:34.887Z,35.30
2023-04-04T18:12:01.649Z,35.33
2023-04-04T18:14:28.412Z,35.40
2023-04-04T18:16:54.973Z,35.02
2023-04-04T18:19:21.383Z,35.55
2023-04-04T18:21:49.525Z,34.96
2023-04-04T18:24:16.006Z,35.20
2023-04-04T18:26:44.254Z,35.99
2023-04-04T18:29:14.579Z,35.96
2023-04-04T18:31:41.056Z,36.12
2023-04-04T18:34:07.711Z,36.20
2023-04-04T18:36:36.101Z,36.97
2023-04-04T18:39:03.149Z,37.70
2023-04-04T18:41:29.589Z,37.59
2023-04-04T18:43:55.984Z,37.34
2023-04-04T18:46:23.028Z,37.13
2023-04-04T18:48:49.461Z,37.55
2023-04-04T18:51:16.140Z,37.09
2023-04-04T18:53:42.512Z,37.05
2023-04-04T18:56:08.972Z,37.65
2023-04-04T18:58:36.926Z,38.83
2023-04-04T19:01:03.783Z,38.02
2023-04-04T19:03:38.959Z,37.66
2023-04-04T19:06:07.370Z,38.02
2023-04-04T19:08:38.542Z,39.14
2023-04-04T19:11:04.981Z,38.65
2023-04-04T19:13:31.565Z,40.52
2023-04-04T19:15:58.004Z,41.08
2023-04-04T19:18:25.397Z,39.35
2023-04-04T19:20:51.799Z,40.24
2023-04-04T19:23:18.418Z,40.71
2023-04-04T19:25:44.832Z,41.49
2023-04-04T19:28:11.450Z,41.87
2023-04-04T19:30:47.126Z,43.18
2023-04-04T19:33:21.978Z,45.38
2023-04-04T19:35:53.380Z,45.52
2023-04-04T19:38:26.010Z,46.13
2023-04-04T19:41:11.840Z,46.64
2023-04-04T19:43:42.155Z,45.45
2023-04-04T19:46:11.629Z,46.59
2023-04-04T19:48:43.028Z,45.62
2023-04-04T19:51:17.045Z,46.56
2023-04-04T19:53:51.522Z,47.94
2023-04-04T19:56:21.186Z,45.81
2023-04-04T19:58:52.624Z,47.46
2023-04-04T20:01:24.734Z,47.50
2023-04-04T20:03:51.204Z,46.29
2023-04-04T20:06:27.804Z,48.05
2023-04-04T20:09:00.340Z,49.52
2023-04-04T20:11:31.887Z,49.13
2023-04-04T20:14:09.344Z,50.65
2023-04-04T20:16:36.687Z,52.39
2023-04-04T20:19:08.215Z,51.74
2023-04-04T20:21:35.770Z,52.81
2023-04-04T20:24:05.873Z,52.51
2023-04-04T20:26:35.619Z,54.23
2023-04-04T20:29:06.475Z,55.53
2023-04-04T20:31:41.942Z,55.28
2023-04-04T20:34:47.117Z,52.63
2023-04-04T20:37:21.449Z,54.28
2023-04-04T20:40:04.377Z,57.09
2023-04-04T20:42:30.931Z,56.95
2023-04-04T20:45:20.619Z,57.55
2023-04-04T20:47:54.997Z,58.03
2023-04-04T20:50:26.934Z,57.89
2023-04-04T20:53:04.794Z,60.11
2023-04-04T20:55:33.731Z,58.26
2023-04-04T20:58:19.981Z,58.03
2023-04-04T21:00:46.405Z,60.27
2023-04-04T21:03:24.949Z,59.17
2023-04-04T21:06:15.184Z,60.25
2023-04-04T21:08:50.110Z,58.44
2023-04-04T21:11:23.911Z,60.01
2023-04-04T21:13:50.461Z,61.39
2023-04-04T21:16:22.733Z,60.65
2023-04-04T21:19:00.232Z,60.78
2023-04-04T21:21:27.809Z,61.30
2023-04-04T21:23:59.221Z,61.20
2023-04-04T21:26:30.596Z,59.88
2023-04-04T21:28:59.157Z,62.72
2023-04-04T21:31:28.643Z,63.08
2023-04-04T21:33:57.978Z,61.80
2023-04-04T21:36:29.377Z,62.13
2023-04-04T21:39:00.923Z,62.49
2023-04-04T21:41:34.804Z,63.92
2023-04-04T21:44:03.414Z,64.12
2023-04-04T21:46:33.575Z,62.87
2023-04-04T21:49:00.409Z,65.64
2023-04-04T21:51:27.500Z,65.85
2023-04-04T21:53:54.615Z,64.37
2023-04-04T21:56:22.487Z,66.54
2023-04-04T21:58:49.400Z,66.65
2023-04-04T22:01:16.139Z,66.52
2023-04-04T22:03:42.580Z,66.60
2023-04-04T22:06:09.012Z,67.10
2023-04-04T22:08:35.478Z,67.73
2023-04-04T22:11:03.145Z,67.04
2023-04-04T22:13:33.398Z,67.88
2023-04-04T22:16:01.455Z,67.54
2023-04-04T22:18:33.033Z,68.95
2023-04-04T22:21:04.850Z,69.29
2023-04-04T22:23:38.010Z,69.84
2023-04-04T22:26:05.889Z,68.95
2023-04-04T22:28:33.694Z,69.88
2023-04-04T22:31:01.925Z,70.88
2023-04-04T22:33:29.631Z,71.16
2023-04-04T22:35:59.545Z,71.28
2023-04-04T22:38:27.153Z,71.60
2023-04-04T22:40:54.831Z,71.95
2023-04-04T22:43:21.814Z,72.28
2023-04-04T22:45:48.384Z,73.11
2023-04-04T22:48:15.223Z,73.19
2023-04-04T22:50:42.123Z,73.51
2023-04-04T22:53:12.709Z,72.18
2023-04-04T22:55:40.264Z,72.85
2023-04-04T22:58:07.587Z,73.37
2023-04-04T23:00:34.940Z,73.64
2023-04-04T23:03:02.231Z,73.50
2023-04-04T23:05:29.645Z,73.90
2023-04-04T23:08:01.302Z,74.31
2023-04-04T23:10:27.875Z,74.00
2023-04-04T23:12:54.244Z,74.25
2023-04-04T23:15:20.624Z,74.85
2023-04-04T23:17:47.126Z,75.60
2023-04-04T23:20:13.561Z,75.87
2023-04-04T23:22:40.021Z,76.44
2023-04-04T23:25:07.544Z,77.26
2023-04-04T23:27:34.471Z,76.98
2023-04-04T23:30:04.526Z,77.61
2023-04-04T23:32:32.173Z,77.37
2023-04-04T23:34:58.660Z,77.44
2023-04-04T23:37:25.181Z,78.10
2023-04-04T23:39:51.668Z,78.06
2023-04-04T23:42:18.102Z,78.42
2023-04-04T23:44:45.747Z,78.13
2023-04-04T23:47:12.445Z,78.49
2023-04-04T23:49:38.873Z,79.46
2023-04-04T23:52:05.663Z,79.57
2023-04-04T23:54:32.034Z,79.92
2023-04-04T23:56:58.423Z,80.58
2023-04-04T23:59:24.927Z,80.90
